sensor_id;sensor_type;location;lat;lon;timestamp;temperature;humidity
21712;DHT22;11017;53.552;9.910;2022-12-07T00:01:06;4.70;99.90
21712;DHT22;11017;53.552;9.910;2022-12-07T00:03:35;4.70;99.90
21712;DHT22;11017;53.552;9.910;2022-12-07T00:06:03;4.70;99.90
21712;DHT22;11017;53.552;9.910;2022-12-07T00:08:31;4.80;99.90
21712;DHT22;11017;53.552;9.910;2022-12-07T00:11:02;4.70;99.90
21712;DHT22;11017;53.552;9.910;2022-12-07T00:13:29;4.70;99.90
21712;DHT22;11017;53.552;9.910;2022-12-07T00:16:00;4.80;99.90
21712;DHT22;11017;53.552;9.910;2022-12-07T00:18:27;4.80;99.90
21712;DHT22;11017;53.552;9.910;2022-12-07T00:20:59;4.90;99.90
21712;DHT22;11017;53.552;9.910;2022-12-07T00:23:26;5.00;99.90
21712;DHT22;11017;53.552;9.910;2022-12-07T00:25:53;4.80;99.90
21712;DHT22;11017;53.552;9.910;2022-12-07T00:28:21;4.80;99.90
21712;DHT22;11017;53.552;9.910;2022-12-07T00:30:51;4.90;99.90
21712;DHT22;11017;53.552;9.910;2022-12-07T00:33:17;4.80;99.90
21712;DHT22;11017;53.552;9.910;2022-12-07T00:35:44;4.90;99.90
21712;DHT22;11017;53.552;9.910;2022-12-07T00:38:11;4.80;99.90
21712;DHT22;11017;53.552;9.910;2022-12-07T00:40:38;4.80;99.90
21712;DHT22;11017;53.552;9.910;2022-12-07T00:43:05;4.80;99.90
21712;DHT22;11017;53.552;9.910;2022-12-07T00:45:33;4.70;99.90
21712;DHT22;11017;53.552;9.910;2022-12-07T00:48:00;4.70;99.90
21712;DHT22;11017;53.552;9.910;2022-12-07T00:50:26;4.70;99.90
21712;DHT22;11017;53.552;9.910;2022-12-07T00:52:55;4.90;99.90
21712;DHT22;11017;53.552;9.910;2022-12-07T00:55:22;4.80;99.90
21712;DHT22;11017;53.552;9.910;2022-12-07T00:57:49;4.90;99.90
21712;DHT22;11017;53.552;9.910;2022-12-07T01:00:16;4.90;99.90
21712;DHT22;11017;53.552;9.910;2022-12-07T01:02:44;4.90;99.90
21712;DHT22;11017;53.552;9.910;2022-12-07T01:05:11;5.00;99.90
21712;DHT22;11017;53.552;9.910;2022-12-07T01:07:38;4.80;99.90
21712;DHT22;11017;53.552;9.910;2022-12-07T01:10:07;4.70;99.90
21712;DHT22;11017;53.552;9.910;2022-12-07T01:12:34;4.70;99.90
21712;DHT22;11017;53.552;9.910;2022-12-07T01:15:00;4.80;99.90
21712;DHT22;11017;53.552;9.910;2022-12-07T01:17:28;4.80;99.90
21712;DHT22;11017;53.552;9.910;2022-12-07T01:19:57;4.70;99.90
21712;DHT22;11017;53.552;9.910;2022-12-07T01:22:23;4.80;99.90
21712;DHT22;11017;53.552;9.910;2022-12-07T01:24:50;4.70;99.90
21712;DHT22;11017;53.552;9.910;2022-12-07T01:27:17;4.70;99.90
21712;DHT22;11017;53.552;9.910;2022-12-07T01:29:44;4.70;99.90
21712;DHT22;11017;53.552;9.910;2022-12-07T01:32:11;4.70;99.90
21712;DHT22;11017;53.552;9.910;2022-12-07T01:34:38;4.70;99.90
21712;DHT22;11017;53.552;9.910;2022-12-07T01:37:07;4.70;99.90
21712;DHT22;11017;53.552;9.910;2022-12-07T01:39:33;4.70;99.90
21712;DHT22;11017;53.552;9.910;2022-12-07T01:42:00;4.70;99.90
21712;DHT22;11017;53.552;9.910;2022-12-07T01:44:28;4.70;99.90
21712;DHT22;11017;53.552;9.910;2022-12-07T01:46:58;4.70;99.90
21712;DHT22;11017;53.552;9.910;2022-12-07T01:49:29;4.80;99.90
21712;DHT22;11017;53.552;9.910;2022-12-07T01:52:06;4.80;99.90
21712;DHT22;11017;53.552;9.910;2022-12-07T01:54:37;4.80;99.90
21712;DHT22;11017;53.552;9.910;2022-12-07T01:57:05;4.70;99.90
21712;DHT22;11017;53.552;9.910;2022-12-07T01:59:33;4.60;99.90
21712;DHT22;11017;53.552;9.910;2022-12-07T02:02:02;4.60;99.90
21712;DHT22;11017;53.552;9.910;2022-12-07T02:04:30;4.60;99.90
21712;DHT22;11017;53.552;9.910;2022-12-07T02:06:58;4.50;99.90
21712;DHT22;11017;53.552;9.910;2022-12-07T02:09:25;4.50;99.90
21712;DHT22;11017;53.552;9.910;2022-12-07T02:11:54;4.50;99.90
21712;DHT22;11017;53.552;9.910;2022-12-07T02:14:21;4.50;99.90
21712;DHT22;11017;53.552;9.910;2022-12-07T02:16:57;4.40;99.90
21712;DHT22;11017;53.552;9.910;2022-12-07T02:19:58;4.30;99.90
21712;DHT22;11017;53.552;9.910;2022-12-07T02:22:55;4.40;99.90
21712;DHT22;11017;53.552;9.910;2022-12-07T02:25:39;4.30;99.90
21712;DHT22;11017;53.552;9.910;2022-12-07T02:28:14;4.20;99.90
21712;DHT22;11017;53.552;9.910;2022-12-07T02:30:47;4.10;99.90
21712;DHT22;11017;53.552;9.910;2022-12-07T02:33:17;4.10;99.90
21712;DHT22;11017;53.552;9.910;2022-12-07T02:35:53;4.10;99.90
21712;DHT22;11017;53.552;9.910;2022-12-07T02:38:28;4.10;99.90
21712;DHT22;11017;53.552;9.910;2022-12-07T02:40:59;4.10;99.90
21712;DHT22;11017;53.552;9.910;2022-12-07T02:43:31;4.10;99.90
21712;DHT22;11017;53.552;9.910;2022-12-07T02:46:05;4.10;99.90
21712;DHT22;11017;53.552;9.910;2022-12-07T02:48:33;4.10;99.90
21712;DHT22;11017;53.552;9.910;2022-12-07T02:51:01;4.20;99.90
21712;DHT22;11017;53.552;9.910;2022-12-07T02:53:33;4.20;99.90
21712;DHT22;11017;53.552;9.910;2022-12-07T02:56:05;4.20;99.90
21712;DHT22;11017;53.552;9.910;2022-12-07T02:58:38;4.10;99.90
21712;DHT22;11017;53.552;9.910;2022-12-07T03:01:24;4.20;99.90
21712;DHT22;11017;53.552;9.910;2022-12-07T03:04:05;4.10;99.90
21712;DHT22;11017;53.552;9.910;2022-12-07T03:06:40;4.10;99.90
21712;DHT22;11017;53.552;9.910;2022-12-07T03:09:13;4.00;99.90
21712;DHT22;11017;53.552;9.910;2022-12-07T03:11:46;4.00;99.90
21712;DHT22;11017;53.552;9.910;2022-12-07T03:14:18;4.00;99.90
21712;DHT22;11017;53.552;9.910;2022-12-07T03:16:53;4.00;99.90
21712;DHT22;11017;53.552;9.910;2022-12-07T03:19:26;4.00;99.90
21712;DHT22;11017;53.552;9.910;2022-12-07T03:21:55;4.00;99.90
21712;DHT22;11017;53.552;9.910;2022-12-07T03:24:27;4.00;99.90
21712;DHT22;11017;53.552;9.910;2022-12-07T03:27:03;4.00;99.90
21712;DHT22;11017;53.552;9.910;2022-12-07T03:29:34;4.00;99.90
21712;DHT22;11017;53.552;9.910;2022-12-07T03:32:08;3.90;99.90
21712;DHT22;11017;53.552;9.910;2022-12-07T03:34:41;3.90;99.90
21712;DHT22;11017;53.552;9.910;2022-12-07T03:37:15;3.80;99.90
21712;DHT22;11017;53.552;9.910;2022-12-07T03:39:49;3.80;99.90
21712;DHT22;11017;53.552;9.910;2022-12-07T03:42:18;3.80;99.90
21712;DHT22;11017;53.552;9.910;2022-12-07T03:44:45;3.80;99.90
21712;DHT22;11017;53.552;9.910;2022-12-07T03:47:18;3.70;99.90
21712;DHT22;11017;53.552;9.910;2022-12-07T03:49:51;3.70;99.90
21712;DHT22;11017;53.552;9.910;2022-12-07T03:52:23;3.70;99.90
21712;DHT22;11017;53.552;9.910;2022-12-07T03:54:55;3.70;99.90
21712;DHT22;11017;53.552;9.910;2022-12-07T03:57:25;3.70;99.90
21712;DHT22;11017;53.552;9.910;2022-12-07T03:59:54;3.70;99.90
21712;DHT22;11017;53.552;9.910;2022-12-07T04:02:23;3.70;99.90
21712;DHT22;11017;53.552;9.910;2022-12-07T04:04:51;3.70;99.90
21712;DHT22;11017;53.552;9.910;2022-12-07T04:07:19;3.70;99.90
21712;DHT22;11017;53.552;9.910;2022-12-07T04:09:45;3.80;99.90
21712;DHT22;11017;53.552;9.910;2022-12-07T04:12:12;3.80;99.90
21712;DHT22;11017;53.552;9.910;2022-12-07T04:14:39;3.80;99.90
21712;DHT22;11017;53.552;9.910;2022-12-07T04:17:09;3.80;99.90
21712;DHT22;11017;53.552;9.910;2022-12-07T04:19:37;3.80;99.90
21712;DHT22;11017;53.552;9.910;2022-12-07T04:22:04;3.80;99.90
21712;DHT22;11017;53.552;9.910;2022-12-07T04:24:32;3.80;99.90
21712;DHT22;11017;53.552;9.910;2022-12-07T04:26:59;3.70;99.90
21712;DHT22;11017;53.552;9.910;2022-12-07T04:29:26;3.70;99.90
21712;DHT22;11017;53.552;9.910;2022-12-07T04:31:53;3.80;99.90
21712;DHT22;11017;53.552;9.910;2022-12-07T04:34:20;3.80;99.90
21712;DHT22;11017;53.552;9.910;2022-12-07T04:36:49;3.80;99.90
21712;DHT22;11017;53.552;9.910;2022-12-07T04:39:20;3.70;99.90
21712;DHT22;11017;53.552;9.910;2022-12-07T04:41:47;3.70;99.90
21712;DHT22;11017;53.552;9.910;2022-12-07T04:44:15;3.60;99.90
21712;DHT22;11017;53.552;9.910;2022-12-07T04:46:42;3.70;99.90
21712;DHT22;11017;53.552;9.910;2022-12-07T04:49:10;3.70;99.90
21712;DHT22;11017;53.552;9.910;2022-12-07T04:51:37;3.70;99.90
21712;DHT22;11017;53.552;9.910;2022-12-07T04:54:05;3.70;99.90
21712;DHT22;11017;53.552;9.910;2022-12-07T04:56:33;3.70;99.90
21712;DHT22;11017;53.552;9.910;2022-12-07T04:59:02;3.70;99.90
21712;DHT22;11017;53.552;9.910;2022-12-07T05:01:29;3.70;99.90
21712;DHT22;11017;53.552;9.910;2022-12-07T05:03:56;3.80;99.90
21712;DHT22;11017;53.552;9.910;2022-12-07T05:06:23;3.70;99.90
21712;DHT22;11017;53.552;9.910;2022-12-07T05:08:50;3.70;99.90
21712;DHT22;11017;53.552;9.910;2022-12-07T05:11:18;3.60;99.90
21712;DHT22;11017;53.552;9.910;2022-12-07T05:13:59;3.50;99.90
21712;DHT22;11017;53.552;9.910;2022-12-07T05:16:28;3.50;99.90
21712;DHT22;11017;53.552;9.910;2022-12-07T05:18:55;3.40;99.90
21712;DHT22;11017;53.552;9.910;2022-12-07T05:21:22;3.40;99.90
21712;DHT22;11017;53.552;9.910;2022-12-07T05:23:49;3.50;99.90
21712;DHT22;11017;53.552;9.910;2022-12-07T05:26:17;3.40;99.90
21712;DHT22;11017;53.552;9.910;2022-12-07T05:28:44;3.50;99.90
21712;DHT22;11017;53.552;9.910;2022-12-07T05:31:11;3.50;99.90
21712;DHT22;11017;53.552;9.910;2022-12-07T05:33:38;3.40;99.90
21712;DHT22;11017;53.552;9.910;2022-12-07T05:36:05;3.40;99.90
21712;DHT22;11017;53.552;9.910;2022-12-07T05:38:33;3.40;99.90
21712;DHT22;11017;53.552;9.910;2022-12-07T05:41:01;3.40;99.90
21712;DHT22;11017;53.552;9.910;2022-12-07T05:43:30;3.40;99.90
21712;DHT22;11017;53.552;9.910;2022-12-07T05:45:57;3.40;99.90
21712;DHT22;11017;53.552;9.910;2022-12-07T05:48:25;3.40;99.90
21712;DHT22;11017;53.552;9.910;2022-12-07T05:50:52;3.50;99.90
21712;DHT22;11017;53.552;9.910;2022-12-07T05:53:19;3.50;99.90
21712;DHT22;11017;53.552;9.910;2022-12-07T05:55:46;3.50;99.90
21712;DHT22;11017;53.552;9.910;2022-12-07T05:58:13;3.40;99.90
21712;DHT22;11017;53.552;9.910;2022-12-07T06:00:58;3.50;99.90
21712;DHT22;11017;53.552;9.910;2022-12-07T06:03:25;3.40;99.90
21712;DHT22;11017;53.552;9.910;2022-12-07T06:05:52;3.40;99.90
21712;DHT22;11017;53.552;9.910;2022-12-07T06:08:20;3.50;99.90
21712;DHT22;11017;53.552;9.910;2022-12-07T06:10:47;3.50;99.90
21712;DHT22;11017;53.552;9.910;2022-12-07T06:13:36;3.40;99.90
21712;DHT22;11017;53.552;9.910;2022-12-07T06:16:04;3.40;99.90
21712;DHT22;11017;53.552;9.910;2022-12-07T06:18:31;3.40;99.90
21712;DHT22;11017;53.552;9.910;2022-12-07T06:20:58;3.40;99.90
21712;DHT22;11017;53.552;9.910;2022-12-07T06:23:24;3.40;99.90
21712;DHT22;11017;53.552;9.910;2022-12-07T06:25:51;3.40;99.90
21712;DHT22;11017;53.552;9.910;2022-12-07T06:28:18;3.50;99.90
21712;DHT22;11017;53.552;9.910;2022-12-07T06:30:45;3.50;99.90
21712;DHT22;11017;53.552;9.910;2022-12-07T06:33:13;3.50;99.90
21712;DHT22;11017;53.552;9.910;2022-12-07T06:35:41;3.40;99.90
21712;DHT22;11017;53.552;9.910;2022-12-07T06:38:08;3.40;99.90
21712;DHT22;11017;53.552;9.910;2022-12-07T06:40:35;3.40;99.90
21712;DHT22;11017;53.552;9.910;2022-12-07T06:43:01;3.40;99.90
21712;DHT22;11017;53.552;9.910;2022-12-07T06:45:28;3.50;99.90
21712;DHT22;11017;53.552;9.910;2022-12-07T06:47:55;3.40;99.90
21712;DHT22;11017;53.552;9.910;2022-12-07T06:50:23;3.40;99.90
21712;DHT22;11017;53.552;9.910;2022-12-07T06:52:51;3.40;99.90
21712;DHT22;11017;53.552;9.910;2022-12-07T06:55:18;3.40;99.90
21712;DHT22;11017;53.552;9.910;2022-12-07T06:57:45;3.50;99.90
21712;DHT22;11017;53.552;9.910;2022-12-07T07:00:13;3.40;99.90
21712;DHT22;11017;53.552;9.910;2022-12-07T07:02:40;3.30;99.90
21712;DHT22;11017;53.552;9.910;2022-12-07T07:05:08;3.40;99.90
21712;DHT22;11017;53.552;9.910;2022-12-07T07:07:38;3.30;99.90
21712;DHT22;11017;53.552;9.910;2022-12-07T07:10:06;3.30;99.90
21712;DHT22;11017;53.552;9.910;2022-12-07T07:12:33;3.20;99.90
21712;DHT22;11017;53.552;9.910;2022-12-07T07:15:00;3.20;99.90
21712;DHT22;11017;53.552;9.910;2022-12-07T07:17:27;3.30;99.90
21712;DHT22;11017;53.552;9.910;2022-12-07T07:19:54;3.30;99.90
21712;DHT22;11017;53.552;9.910;2022-12-07T07:22:20;3.20;99.90
21712;DHT22;11017;53.552;9.910;2022-12-07T07:24:49;3.20;99.90
21712;DHT22;11017;53.552;9.910;2022-12-07T07:27:15;3.40;99.90
21712;DHT22;11017;53.552;9.910;2022-12-07T07:29:42;3.50;99.90
21712;DHT22;11017;53.552;9.910;2022-12-07T07:32:09;3.30;99.90
21712;DHT22;11017;53.552;9.910;2022-12-07T07:34:36;3.40;99.90
21712;DHT22;11017;53.552;9.910;2022-12-07T07:37:03;3.40;99.90
21712;DHT22;11017;53.552;9.910;2022-12-07T07:39:30;3.40;99.90
21712;DHT22;11017;53.552;9.910;2022-12-07T07:41:59;3.40;99.90
21712;DHT22;11017;53.552;9.910;2022-12-07T07:44:26;3.30;99.90
21712;DHT22;11017;53.552;9.910;2022-12-07T07:46:52;3.30;99.90
21712;DHT22;11017;53.552;9.910;2022-12-07T07:49:20;3.50;99.90
21712;DHT22;11017;53.552;9.910;2022-12-07T07:51:46;3.50;99.90
21712;DHT22;11017;53.552;9.910;2022-12-07T07:54:13;3.40;99.90
21712;DHT22;11017;53.552;9.910;2022-12-07T07:56:40;3.50;99.90
21712;DHT22;11017;53.552;9.910;2022-12-07T07:59:12;3.50;99.90
21712;DHT22;11017;53.552;9.910;2022-12-07T08:01:38;3.50;99.90
21712;DHT22;11017;53.552;9.910;2022-12-07T08:04:05;3.50;99.90
21712;DHT22;11017;53.552;9.910;2022-12-07T08:06:32;3.60;99.90
21712;DHT22;11017;53.552;9.910;2022-12-07T08:08:59;3.50;99.90
21712;DHT22;11017;53.552;9.910;2022-12-07T08:11:26;3.50;99.90
21712;DHT22;11017;53.552;9.910;2022-12-07T08:13:53;3.60;99.90
21712;DHT22;11017;53.552;9.910;2022-12-07T08:16:21;3.60;99.90
21712;DHT22;11017;53.552;9.910;2022-12-07T08:18:48;3.70;99.90
21712;DHT22;11017;53.552;9.910;2022-12-07T08:21:15;3.70;99.90
21712;DHT22;11017;53.552;9.910;2022-12-07T08:23:43;3.80;99.90
21712;DHT22;11017;53.552;9.910;2022-12-07T08:26:14;3.90;99.90
21712;DHT22;11017;53.552;9.910;2022-12-07T08:28:42;4.00;99.90
21712;DHT22;11017;53.552;9.910;2022-12-07T08:31:12;4.00;99.90
21712;DHT22;11017;53.552;9.910;2022-12-07T08:33:41;4.00;99.90
21712;DHT22;11017;53.552;9.910;2022-12-07T08:36:13;4.10;99.90
21712;DHT22;11017;53.552;9.910;2022-12-07T08:38:41;4.10;99.90
21712;DHT22;11017;53.552;9.910;2022-12-07T08:41:08;4.00;99.90
21712;DHT22;11017;53.552;9.910;2022-12-07T08:43:36;4.00;99.90
21712;DHT22;11017;53.552;9.910;2022-12-07T08:46:07;4.10;99.90
21712;DHT22;11017;53.552;9.910;2022-12-07T08:48:38;4.20;99.90
21712;DHT22;11017;53.552;9.910;2022-12-07T08:51:07;4.40;99.90
21712;DHT22;11017;53.552;9.910;2022-12-07T08:53:35;4.50;99.90
21712;DHT22;11017;53.552;9.910;2022-12-07T08:56:04;4.50;99.90
21712;DHT22;11017;53.552;9.910;2022-12-07T08:58:32;4.50;99.90
21712;DHT22;11017;53.552;9.910;2022-12-07T09:00:59;4.50;99.90
21712;DHT22;11017;53.552;9.910;2022-12-07T09:03:26;4.50;99.90
21712;DHT22;11017;53.552;9.910;2022-12-07T09:05:55;4.50;99.90
21712;DHT22;11017;53.552;9.910;2022-12-07T09:08:27;4.50;99.90
21712;DHT22;11017;53.552;9.910;2022-12-07T09:10:55;4.60;99.90
21712;DHT22;11017;53.552;9.910;2022-12-07T09:13:22;4.70;99.90
21712;DHT22;11017;53.552;9.910;2022-12-07T09:15:49;4.70;99.90
21712;DHT22;11017;53.552;9.910;2022-12-07T09:18:16;4.80;99.90
21712;DHT22;11017;53.552;9.910;2022-12-07T09:20:43;4.70;99.90
21712;DHT22;11017;53.552;9.910;2022-12-07T09:23:10;4.80;99.90
21712;DHT22;11017;53.552;9.910;2022-12-07T09:25:38;4.80;99.90
21712;DHT22;11017;53.552;9.910;2022-12-07T09:28:05;4.60;99.90
21712;DHT22;11017;53.552;9.910;2022-12-07T09:30:32;4.70;99.90
21712;DHT22;11017;53.552;9.910;2022-12-07T09:32:59;4.80;99.90
21712;DHT22;11017;53.552;9.910;2022-12-07T09:35:26;4.70;99.90
21712;DHT22;11017;53.552;9.910;2022-12-07T09:37:53;4.90;99.90
21712;DHT22;11017;53.552;9.910;2022-12-07T09:40:22;5.00;99.90
21712;DHT22;11017;53.552;9.910;2022-12-07T09:42:52;5.10;99.90
21712;DHT22;11017;53.552;9.910;2022-12-07T09:45:23;5.00;99.90
21712;DHT22;11017;53.552;9.910;2022-12-07T09:47:50;5.00;99.90
21712;DHT22;11017;53.552;9.910;2022-12-07T09:50:21;5.10;99.90
21712;DHT22;11017;53.552;9.910;2022-12-07T09:52:49;5.10;99.90
21712;DHT22;11017;53.552;9.910;2022-12-07T09:55:21;5.20;99.90
21712;DHT22;11017;53.552;9.910;2022-12-07T09:57:52;5.20;99.90
21712;DHT22;11017;53.552;9.910;2022-12-07T10:00:21;5.30;99.90
21712;DHT22;11017;53.552;9.910;2022-12-07T10:02:51;5.40;99.90
21712;DHT22;11017;53.552;9.910;2022-12-07T10:05:24;5.40;99.90
21712;DHT22;11017;53.552;9.910;2022-12-07T10:07:52;5.50;99.90
21712;DHT22;11017;53.552;9.910;2022-12-07T10:10:22;5.40;99.90
21712;DHT22;11017;53.552;9.910;2022-12-07T10:12:59;5.30;99.90
21712;DHT22;11017;53.552;9.910;2022-12-07T10:15:46;5.40;99.90
21712;DHT22;11017;53.552;9.910;2022-12-07T10:18:19;5.40;99.90
21712;DHT22;11017;53.552;9.910;2022-12-07T10:20:46;5.40;99.90
21712;DHT22;11017;53.552;9.910;2022-12-07T10:23:16;5.30;99.90
21712;DHT22;11017;53.552;9.910;2022-12-07T10:25:43;5.30;99.90
21712;DHT22;11017;53.552;9.910;2022-12-07T10:28:15;5.30;99.90
21712;DHT22;11017;53.552;9.910;2022-12-07T10:30:54;5.10;99.90
21712;DHT22;11017;53.552;9.910;2022-12-07T10:33:32;5.10;99.90
21712;DHT22;11017;53.552;9.910;2022-12-07T10:35:59;5.20;99.90
21712;DHT22;11017;53.552;9.910;2022-12-07T10:38:27;5.20;99.90
21712;DHT22;11017;53.552;9.910;2022-12-07T10:41:04;5.30;99.90
21712;DHT22;11017;53.552;9.910;2022-12-07T10:43:33;5.30;99.90
21712;DHT22;11017;53.552;9.910;2022-12-07T10:49:08;5.40;99.90
21712;DHT22;11017;53.552;9.910;2022-12-07T10:51:47;5.50;99.90
21712;DHT22;11017;53.552;9.910;2022-12-07T10:54:23;5.60;99.90
21712;DHT22;11017;53.552;9.910;2022-12-07T10:57:01;5.80;99.90
21712;DHT22;11017;53.552;9.910;2022-12-07T11:02:40;6.00;99.90
21712;DHT22;11017;53.552;9.910;2022-12-07T11:05:19;5.90;99.90
21712;DHT22;11017;53.552;9.910;2022-12-07T11:08:03;5.80;99.90
21712;DHT22;11017;53.552;9.910;2022-12-07T11:10:39;5.70;99.90
21712;DHT22;11017;53.552;9.910;2022-12-07T11:13:24;5.80;99.90
21712;DHT22;11017;53.552;9.910;2022-12-07T11:16:12;5.80;99.90
21712;DHT22;11017;53.552;9.910;2022-12-07T11:18:53;5.80;99.90
21712;DHT22;11017;53.552;9.910;2022-12-07T11:21:27;5.70;99.90
21712;DHT22;11017;53.552;9.910;2022-12-07T11:24:02;5.80;99.90
21712;DHT22;11017;53.552;9.910;2022-12-07T11:26:47;5.90;99.90
21712;DHT22;11017;53.552;9.910;2022-12-07T11:29:40;5.70;99.90
21712;DHT22;11017;53.552;9.910;2022-12-07T11:32:17;5.70;99.90
21712;DHT22;11017;53.552;9.910;2022-12-07T11:34:58;5.80;99.90
21712;DHT22;11017;53.552;9.910;2022-12-07T11:37:31;5.90;99.90
21712;DHT22;11017;53.552;9.910;2022-12-07T11:40:02;5.80;99.90
21712;DHT22;11017;53.552;9.910;2022-12-07T11:42:33;5.80;99.90
21712;DHT22;11017;53.552;9.910;2022-12-07T11:45:13;5.80;99.90
21712;DHT22;11017;53.552;9.910;2022-12-07T11:47:46;6.00;99.90
21712;DHT22;11017;53.552;9.910;2022-12-07T11:50:26;6.20;99.90
21712;DHT22;11017;53.552;9.910;2022-12-07T11:52:57;6.20;99.90
21712;DHT22;11017;53.552;9.910;2022-12-07T11:55:29;6.00;99.90
21712;DHT22;11017;53.552;9.910;2022-12-07T11:58:03;5.90;99.90
21712;DHT22;11017;53.552;9.910;2022-12-07T12:00:30;5.90;99.90
21712;DHT22;11017;53.552;9.910;2022-12-07T12:03:03;6.00;99.90
21712;DHT22;11017;53.552;9.910;2022-12-07T12:05:34;6.10;99.90
21712;DHT22;11017;53.552;9.910;2022-12-07T12:08:13;6.20;99.90
21712;DHT22;11017;53.552;9.910;2022-12-07T12:10:50;6.20;99.90
21712;DHT22;11017;53.552;9.910;2022-12-07T12:13:42;6.30;99.90
21712;DHT22;11017;53.552;9.910;2022-12-07T12:16:27;6.30;99.90
21712;DHT22;11017;53.552;9.910;2022-12-07T12:19:16;6.40;99.90
21712;DHT22;11017;53.552;9.910;2022-12-07T12:21:46;6.40;99.90
21712;DHT22;11017;53.552;9.910;2022-12-07T12:24:16;6.30;99.90
21712;DHT22;11017;53.552;9.910;2022-12-07T12:26:51;6.30;99.90
21712;DHT22;11017;53.552;9.910;2022-12-07T12:29:21;6.30;99.90
21712;DHT22;11017;53.552;9.910;2022-12-07T12:32:06;6.50;99.90
21712;DHT22;11017;53.552;9.910;2022-12-07T12:34:40;6.50;99.90
21712;DHT22;11017;53.552;9.910;2022-12-07T12:37:41;6.40;99.90
21712;DHT22;11017;53.552;9.910;2022-12-07T12:40:40;6.70;99.90
21712;DHT22;11017;53.552;9.910;2022-12-07T12:43:41;6.90;99.90
21712;DHT22;11017;53.552;9.910;2022-12-07T12:46:38;7.20;99.90
21712;DHT22;11017;53.552;9.910;2022-12-07T12:49:39;7.10;99.90
21712;DHT22;11017;53.552;9.910;2022-12-07T12:58:32;7.00;99.90
21712;DHT22;11017;53.552;9.910;2022-12-07T13:04:38;6.90;99.90
21712;DHT22;11017;53.552;9.910;2022-12-07T13:07:13;7.00;99.90
21712;DHT22;11017;53.552;9.910;2022-12-07T13:10:02;7.20;99.90
21712;DHT22;11017;53.552;9.910;2022-12-07T13:12:29;7.10;99.90
21712;DHT22;11017;53.552;9.910;2022-12-07T13:14:58;6.90;99.90
21712;DHT22;11017;53.552;9.910;2022-12-07T13:18:00;7.00;99.90
21712;DHT22;11017;53.552;9.910;2022-12-07T13:20:54;6.70;99.90
21712;DHT22;11017;53.552;9.910;2022-12-07T13:23:27;6.70;99.90
21712;DHT22;11017;53.552;9.910;2022-12-07T13:28:43;6.40;99.90
21712;DHT22;11017;53.552;9.910;2022-12-07T13:31:24;6.40;99.90
21712;DHT22;11017;53.552;9.910;2022-12-07T13:33:52;6.50;99.90
21712;DHT22;11017;53.552;9.910;2022-12-07T13:36:22;6.60;99.90
21712;DHT22;11017;53.552;9.910;2022-12-07T13:38:55;6.80;99.90
21712;DHT22;11017;53.552;9.910;2022-12-07T13:41:24;6.80;99.90
21712;DHT22;11017;53.552;9.910;2022-12-07T13:43:58;6.70;99.90
21712;DHT22;11017;53.552;9.910;2022-12-07T13:46:35;6.80;99.90
21712;DHT22;11017;53.552;9.910;2022-12-07T13:49:16;6.60;99.90
21712;DHT22;11017;53.552;9.910;2022-12-07T13:51:44;6.30;99.90
21712;DHT22;11017;53.552;9.910;2022-12-07T13:54:12;6.20;99.90
21712;DHT22;11017;53.552;9.910;2022-12-07T13:56:41;6.20;99.90
21712;DHT22;11017;53.552;9.910;2022-12-07T13:59:13;6.30;99.90
21712;DHT22;11017;53.552;9.910;2022-12-07T14:01:41;6.30;99.90
21712;DHT22;11017;53.552;9.910;2022-12-07T14:04:32;6.20;99.90
21712;DHT22;11017;53.552;9.910;2022-12-07T14:07:00;6.10;99.90
21712;DHT22;11017;53.552;9.910;2022-12-07T14:09:29;6.20;99.90
21712;DHT22;11017;53.552;9.910;2022-12-07T14:11:58;6.20;99.90
21712;DHT22;11017;53.552;9.910;2022-12-07T14:14:28;6.30;99.90
21712;DHT22;11017;53.552;9.910;2022-12-07T14:16:58;6.30;99.90
21712;DHT22;11017;53.552;9.910;2022-12-07T14:19:44;6.30;99.90
21712;DHT22;11017;53.552;9.910;2022-12-07T14:22:23;6.10;99.90
21712;DHT22;11017;53.552;9.910;2022-12-07T14:24:51;6.00;99.90
21712;DHT22;11017;53.552;9.910;2022-12-07T14:27:31;5.90;99.90
21712;DHT22;11017;53.552;9.910;2022-12-07T14:29:59;5.90;99.90
21712;DHT22;11017;53.552;9.910;2022-12-07T14:32:28;5.80;99.90
21712;DHT22;11017;53.552;9.910;2022-12-07T14:34:58;5.80;99.90
21712;DHT22;11017;53.552;9.910;2022-12-07T14:37:26;5.70;99.90
21712;DHT22;11017;53.552;9.910;2022-12-07T14:39:53;5.60;99.90
21712;DHT22;11017;53.552;9.910;2022-12-07T14:42:20;5.50;99.90
21712;DHT22;11017;53.552;9.910;2022-12-07T14:44:49;5.20;99.90
21712;DHT22;11017;53.552;9.910;2022-12-07T14:47:16;5.30;99.90
21712;DHT22;11017;53.552;9.910;2022-12-07T14:49:43;5.30;99.90
21712;DHT22;11017;53.552;9.910;2022-12-07T14:52:13;5.40;99.90
21712;DHT22;11017;53.552;9.910;2022-12-07T14:54:41;5.40;99.90
21712;DHT22;11017;53.552;9.910;2022-12-07T14:57:09;5.30;99.90
21712;DHT22;11017;53.552;9.910;2022-12-07T14:59:37;5.20;99.90
21712;DHT22;11017;53.552;9.910;2022-12-07T15:02:05;5.10;99.90
21712;DHT22;11017;53.552;9.910;2022-12-07T15:04:33;5.10;99.90
21712;DHT22;11017;53.552;9.910;2022-12-07T15:07:02;5.10;99.90
21712;DHT22;11017;53.552;9.910;2022-12-07T15:09:29;5.00;99.90
21712;DHT22;11017;53.552;9.910;2022-12-07T15:11:56;5.00;99.90
21712;DHT22;11017;53.552;9.910;2022-12-07T15:14:23;5.00;99.90
21712;DHT22;11017;53.552;9.910;2022-12-07T15:16:50;5.10;99.90
21712;DHT22;11017;53.552;9.910;2022-12-07T15:19:20;5.10;99.90
21712;DHT22;11017;53.552;9.910;2022-12-07T15:21:48;5.00;99.90
21712;DHT22;11017;53.552;9.910;2022-12-07T15:24:15;5.00;99.90
21712;DHT22;11017;53.552;9.910;2022-12-07T15:26:42;4.90;99.90
21712;DHT22;11017;53.552;9.910;2022-12-07T15:29:10;4.90;99.90
21712;DHT22;11017;53.552;9.910;2022-12-07T15:31:37;4.90;99.90
21712;DHT22;11017;53.552;9.910;2022-12-07T15:34:04;4.90;99.90
21712;DHT22;11017;53.552;9.910;2022-12-07T15:36:33;4.80;99.90
21712;DHT22;11017;53.552;9.910;2022-12-07T15:39:01;4.70;99.90
21712;DHT22;11017;53.552;9.910;2022-12-07T15:41:28;4.70;99.90
21712;DHT22;11017;53.552;9.910;2022-12-07T15:43:55;4.70;99.90
21712;DHT22;11017;53.552;9.910;2022-12-07T15:46:40;4.70;99.90
21712;DHT22;11017;53.552;9.910;2022-12-07T15:49:11;4.70;99.90
21712;DHT22;11017;53.552;9.910;2022-12-07T15:51:40;4.70;99.90
21712;DHT22;11017;53.552;9.910;2022-12-07T15:54:08;4.60;99.90
21712;DHT22;11017;53.552;9.910;2022-12-07T15:56:36;4.50;99.90
21712;DHT22;11017;53.552;9.910;2022-12-07T15:59:03;4.50;99.90
21712;DHT22;11017;53.552;9.910;2022-12-07T16:01:30;4.40;99.90
21712;DHT22;11017;53.552;9.910;2022-12-07T16:03:57;4.40;99.90
21712;DHT22;11017;53.552;9.910;2022-12-07T16:06:27;4.40;99.90
21712;DHT22;11017;53.552;9.910;2022-12-07T16:08:57;4.50;99.90
21712;DHT22;11017;53.552;9.910;2022-12-07T16:11:25;4.50;99.90
21712;DHT22;11017;53.552;9.910;2022-12-07T16:13:52;4.50;99.90
21712;DHT22;11017;53.552;9.910;2022-12-07T16:16:20;4.50;99.90
21712;DHT22;11017;53.552;9.910;2022-12-07T16:18:47;4.50;99.90
21712;DHT22;11017;53.552;9.910;2022-12-07T16:21:15;4.50;99.90
21712;DHT22;11017;53.552;9.910;2022-12-07T16:23:43;4.50;99.90
21712;DHT22;11017;53.552;9.910;2022-12-07T16:26:13;4.50;99.90